Aviation Digital Data Service (ADDS)

Output produced by METARs form (0606 UTC 21 January 2019)
found at http://www.aviationweather.gov/metar/data/
 
Forecast for: KRDU (RALEIGH/DURHAM , NC, US)
Text: KRDU 210524Z 2106/2206 33011G20KT P6SM SKC
Forecast period: 0600 to 2300 UTC 21 January 2019
Forecast type: FROM: standard forecast or significant change
Winds: from the NNW (330 degrees) at 13 MPH (11 knots; 5.7 m/s)
gusting to 23 MPH (20 knots; 10.3 m/s)
Visibility: 6 or more miles 10+ km)
Clouds: clear skies
Weather: no significant weather forecast for this period
Text: FM212300 00000KT P6SM SKC
Forecast period: 2300 UTC 21 January 2019 to 0600 UTC 22 January 2019
Forecast type: FROM: standard forecast or significant change
Winds: calm
Visibility: 6 or more miles 10+ km)
Clouds: clear skies
Weather: no significant weather forecast for this period